Decoded Metar for LEDA (LLEIDA in SPAIN) (IATA:ILD) | Meteo·Mobile Aviation Weather
aviador You're here:

LEDA Decoded Metar

LLEIDA in SPAIN
Report Time2019-07-20 01:00:00
UTC Time2019-07-20 01:14:43
Flight Rules vfr VFR
Wind060° at 10 kt
W.Decomp.*RWY 13: 3.4 kt HW 9.4 kt LCW
Visibility9999 m
Phenomena:N/A
Clouds:N/A
Expected CloudBase > 2,400 ft AGL from Temp-Dew spread
CeilingNone
Temp22°C (ISA +9)
Dew Point16°C (69% RH)
AAT20.4°C
QNH1015 hPa
Density Alt2,411 ft
Elevation1,152 ft
Report Wrong Elevation
Raw Report
LEDA 200100Z AUTO 06010KT CAVOK 22/16 Q1015=

Extra information for LEDA:More info

Metar Taf Metar & Taf Last 4 Metars F.Rules Stats Wind Profile Meteogram Temp Stats Airport Information Weather charts Add Link Nearby VenuesMetar ALERT Operation Metar Decoded Social comments